sensor_id;sensor_type;location;lat;lon;timestamp;P1;durP1;ratioP1;P2;durP2;ratioP2
40983;SDS011;26714;51.332;12.406;2024-03-08T00:00:18;29.23;;;14.68;;
40983;SDS011;26714;51.332;12.406;2024-03-08T00:02:45;26.65;;;14.25;;
40983;SDS011;26714;51.332;12.406;2024-03-08T00:05:12;26.30;;;13.55;;
40983;SDS011;26714;51.332;12.406;2024-03-08T00:07:41;30.42;;;15.80;;
40983;SDS011;26714;51.332;12.406;2024-03-08T00:10:15;26.83;;;15.13;;
40983;SDS011;26714;51.332;12.406;2024-03-08T00:12:47;34.60;;;17.38;;
40983;SDS011;26714;51.332;12.406;2024-03-08T00:15:15;30.33;;;15.40;;
40983;SDS011;26714;51.332;12.406;2024-03-08T00:17:43;29.00;;;15.52;;
40983;SDS011;26714;51.332;12.406;2024-03-08T00:20:12;29.33;;;15.30;;
40983;SDS011;26714;51.332;12.406;2024-03-08T00:22:43;27.40;;;15.00;;
40983;SDS011;26714;51.332;12.406;2024-03-08T00:25:31;28.08;;;14.32;;
40983;SDS011;26714;51.332;12.406;2024-03-08T00:27:59;29.13;;;15.88;;
40983;SDS011;26714;51.332;12.406;2024-03-08T00:30:31;30.40;;;14.07;;
40983;SDS011;26714;51.332;12.406;2024-03-08T00:32:57;31.83;;;15.32;;
40983;SDS011;26714;51.332;12.406;2024-03-08T00:35:26;31.88;;;14.95;;
40983;SDS011;26714;51.332;12.406;2024-03-08T00:37:52;30.48;;;14.23;;
40983;SDS011;26714;51.332;12.406;2024-03-08T00:40:21;31.75;;;14.75;;
40983;SDS011;26714;51.332;12.406;2024-03-08T00:42:48;32.25;;;15.90;;
40983;SDS011;26714;51.332;12.406;2024-03-08T00:45:15;33.15;;;15.25;;
40983;SDS011;26714;51.332;12.406;2024-03-08T00:47:45;26.20;;;14.63;;
40983;SDS011;26714;51.332;12.406;2024-03-08T00:50:11;32.83;;;16.55;;
40983;SDS011;26714;51.332;12.406;2024-03-08T00:52:41;28.10;;;15.60;;
40983;SDS011;26714;51.332;12.406;2024-03-08T00:55:11;33.55;;;15.82;;
40983;SDS011;26714;51.332;12.406;2024-03-08T00:57:38;35.72;;;15.95;;
40983;SDS011;26714;51.332;12.406;2024-03-08T01:00:09;30.45;;;14.35;;
40983;SDS011;26714;51.332;12.406;2024-03-08T01:03:04;29.40;;;14.88;;
40983;SDS011;26714;51.332;12.406;2024-03-08T01:05:34;31.35;;;16.20;;
40983;SDS011;26714;51.332;12.406;2024-03-08T01:08:06;28.60;;;15.00;;
40983;SDS011;26714;51.332;12.406;2024-03-08T01:13:39;27.73;;;14.77;;
40983;SDS011;26714;51.332;12.406;2024-03-08T01:16:06;29.05;;;14.70;;
40983;SDS011;26714;51.332;12.406;2024-03-08T01:18:35;29.73;;;14.23;;
40983;SDS011;26714;51.332;12.406;2024-03-08T01:23:31;27.83;;;13.60;;
40983;SDS011;26714;51.332;12.406;2024-03-08T01:25:59;28.77;;;14.00;;
40983;SDS011;26714;51.332;12.406;2024-03-08T01:28:29;32.92;;;15.93;;
40983;SDS011;26714;51.332;12.406;2024-03-08T01:31:04;30.92;;;15.75;;
40983;SDS011;26714;51.332;12.406;2024-03-08T01:33:33;35.22;;;15.48;;
40983;SDS011;26714;51.332;12.406;2024-03-08T01:36:00;34.17;;;16.25;;
40983;SDS011;26714;51.332;12.406;2024-03-08T01:38:32;32.00;;;15.95;;
40983;SDS011;26714;51.332;12.406;2024-03-08T01:41:06;30.52;;;14.77;;
40983;SDS011;26714;51.332;12.406;2024-03-08T01:43:44;29.23;;;14.55;;
40983;SDS011;26714;51.332;12.406;2024-03-08T01:46:11;29.08;;;14.63;;
40983;SDS011;26714;51.332;12.406;2024-03-08T01:51:07;30.00;;;14.73;;
40983;SDS011;26714;51.332;12.406;2024-03-08T01:53:47;33.83;;;15.32;;
40983;SDS011;26714;51.332;12.406;2024-03-08T01:56:29;28.42;;;14.88;;
40983;SDS011;26714;51.332;12.406;2024-03-08T01:59:06;33.35;;;16.73;;
40983;SDS011;26714;51.332;12.406;2024-03-08T02:01:40;29.23;;;15.77;;
40983;SDS011;26714;51.332;12.406;2024-03-08T02:04:33;30.48;;;15.85;;
40983;SDS011;26714;51.332;12.406;2024-03-08T02:06:59;31.23;;;15.30;;
40983;SDS011;26714;51.332;12.406;2024-03-08T02:09:25;29.50;;;15.88;;
40983;SDS011;26714;51.332;12.406;2024-03-08T02:11:56;28.33;;;15.18;;
40983;SDS011;26714;51.332;12.406;2024-03-08T02:14:24;33.13;;;16.05;;
40983;SDS011;26714;51.332;12.406;2024-03-08T02:16:52;33.75;;;15.73;;
40983;SDS011;26714;51.332;12.406;2024-03-08T02:19:20;29.13;;;14.85;;
40983;SDS011;26714;51.332;12.406;2024-03-08T02:21:47;30.83;;;14.57;;
40983;SDS011;26714;51.332;12.406;2024-03-08T02:24:18;30.30;;;15.70;;
40983;SDS011;26714;51.332;12.406;2024-03-08T02:26:51;29.88;;;15.68;;
40983;SDS011;26714;51.332;12.406;2024-03-08T02:29:21;32.35;;;15.57;;
40983;SDS011;26714;51.332;12.406;2024-03-08T02:31:50;28.90;;;14.85;;
40983;SDS011;26714;51.332;12.406;2024-03-08T02:34:21;30.63;;;16.20;;
40983;SDS011;26714;51.332;12.406;2024-03-08T02:36:47;33.13;;;16.15;;
40983;SDS011;26714;51.332;12.406;2024-03-08T02:39:19;32.88;;;15.52;;
40983;SDS011;26714;51.332;12.406;2024-03-08T02:41:50;31.58;;;16.25;;
40983;SDS011;26714;51.332;12.406;2024-03-08T02:44:17;31.40;;;15.75;;
40983;SDS011;26714;51.332;12.406;2024-03-08T02:46:44;29.60;;;15.75;;
40983;SDS011;26714;51.332;12.406;2024-03-08T02:49:14;34.90;;;16.10;;
40983;SDS011;26714;51.332;12.406;2024-03-08T02:51:41;29.42;;;14.68;;
40983;SDS011;26714;51.332;12.406;2024-03-08T02:54:08;32.28;;;15.30;;
40983;SDS011;26714;51.332;12.406;2024-03-08T02:56:37;31.05;;;14.70;;
40983;SDS011;26714;51.332;12.406;2024-03-08T02:59:03;30.65;;;15.23;;
40983;SDS011;26714;51.332;12.406;2024-03-08T03:01:33;30.27;;;15.73;;
40983;SDS011;26714;51.332;12.406;2024-03-08T03:04:02;34.17;;;15.43;;
40983;SDS011;26714;51.332;12.406;2024-03-08T03:06:30;31.23;;;15.95;;
40983;SDS011;26714;51.332;12.406;2024-03-08T03:08:59;29.52;;;14.98;;
40983;SDS011;26714;51.332;12.406;2024-03-08T03:11:27;26.75;;;14.40;;
40983;SDS011;26714;51.332;12.406;2024-03-08T03:14:21;30.08;;;14.57;;
40983;SDS011;26714;51.332;12.406;2024-03-08T03:16:47;30.27;;;14.82;;
40983;SDS011;26714;51.332;12.406;2024-03-08T03:19:18;29.25;;;14.60;;
40983;SDS011;26714;51.332;12.406;2024-03-08T03:21:46;27.52;;;13.70;;
40983;SDS011;26714;51.332;12.406;2024-03-08T03:24:13;31.80;;;15.07;;
40983;SDS011;26714;51.332;12.406;2024-03-08T03:26:42;29.25;;;14.45;;
40983;SDS011;26714;51.332;12.406;2024-03-08T03:29:15;30.13;;;14.88;;
40983;SDS011;26714;51.332;12.406;2024-03-08T03:31:51;30.80;;;14.55;;
40983;SDS011;26714;51.332;12.406;2024-03-08T03:34:23;30.08;;;14.35;;
40983;SDS011;26714;51.332;12.406;2024-03-08T03:36:53;33.78;;;14.25;;
40983;SDS011;26714;51.332;12.406;2024-03-08T03:39:24;28.88;;;14.73;;
40983;SDS011;26714;51.332;12.406;2024-03-08T03:41:50;32.83;;;14.68;;
40983;SDS011;26714;51.332;12.406;2024-03-08T03:44:23;30.42;;;14.77;;
40983;SDS011;26714;51.332;12.406;2024-03-08T03:46:53;31.20;;;16.20;;
40983;SDS011;26714;51.332;12.406;2024-03-08T03:49:45;31.27;;;15.02;;
40983;SDS011;26714;51.332;12.406;2024-03-08T03:52:22;29.38;;;13.98;;
40983;SDS011;26714;51.332;12.406;2024-03-08T03:54:48;28.50;;;14.75;;
40983;SDS011;26714;51.332;12.406;2024-03-08T03:57:15;42.65;;;20.13;;
40983;SDS011;26714;51.332;12.406;2024-03-08T03:59:42;36.80;;;17.98;;
40983;SDS011;26714;51.332;12.406;2024-03-08T04:02:10;31.00;;;15.18;;
40983;SDS011;26714;51.332;12.406;2024-03-08T04:04:41;28.95;;;14.65;;
40983;SDS011;26714;51.332;12.406;2024-03-08T04:07:08;33.75;;;14.90;;
40983;SDS011;26714;51.332;12.406;2024-03-08T04:09:43;39.78;;;15.05;;
40983;SDS011;26714;51.332;12.406;2024-03-08T04:12:15;37.70;;;15.88;;
40983;SDS011;26714;51.332;12.406;2024-03-08T04:14:42;33.83;;;15.63;;
40983;SDS011;26714;51.332;12.406;2024-03-08T04:17:29;28.05;;;15.23;;
40983;SDS011;26714;51.332;12.406;2024-03-08T04:19:56;31.45;;;14.70;;
40983;SDS011;26714;51.332;12.406;2024-03-08T04:22:24;31.23;;;15.02;;
40983;SDS011;26714;51.332;12.406;2024-03-08T04:25:06;30.23;;;13.93;;
40983;SDS011;26714;51.332;12.406;2024-03-08T04:27:46;29.20;;;13.52;;
40983;SDS011;26714;51.332;12.406;2024-03-08T04:30:17;27.67;;;14.10;;
40983;SDS011;26714;51.332;12.406;2024-03-08T04:32:48;32.05;;;14.57;;
40983;SDS011;26714;51.332;12.406;2024-03-08T04:38:12;27.42;;;14.25;;
40983;SDS011;26714;51.332;12.406;2024-03-08T04:43:08;32.60;;;13.77;;
40983;SDS011;26714;51.332;12.406;2024-03-08T04:45:36;33.35;;;15.18;;
40983;SDS011;26714;51.332;12.406;2024-03-08T04:48:06;29.08;;;14.60;;
40983;SDS011;26714;51.332;12.406;2024-03-08T04:50:41;39.78;;;16.50;;
40983;SDS011;26714;51.332;12.406;2024-03-08T04:53:20;30.40;;;14.45;;
40983;SDS011;26714;51.332;12.406;2024-03-08T04:55:46;30.70;;;15.13;;
40983;SDS011;26714;51.332;12.406;2024-03-08T04:58:13;38.30;;;16.13;;
40983;SDS011;26714;51.332;12.406;2024-03-08T05:00:42;29.70;;;14.07;;
40983;SDS011;26714;51.332;12.406;2024-03-08T05:03:13;31.75;;;14.32;;
40983;SDS011;26714;51.332;12.406;2024-03-08T05:06:07;28.63;;;14.75;;
40983;SDS011;26714;51.332;12.406;2024-03-08T05:08:33;32.17;;;15.23;;
40983;SDS011;26714;51.332;12.406;2024-03-08T05:10:59;31.02;;;14.65;;
40983;SDS011;26714;51.332;12.406;2024-03-08T05:13:30;31.35;;;14.55;;
40983;SDS011;26714;51.332;12.406;2024-03-08T05:15:56;28.20;;;14.68;;
40983;SDS011;26714;51.332;12.406;2024-03-08T05:18:23;33.78;;;15.32;;
40983;SDS011;26714;51.332;12.406;2024-03-08T05:20:50;34.90;;;15.38;;
40983;SDS011;26714;51.332;12.406;2024-03-08T05:23:18;31.35;;;14.63;;
40983;SDS011;26714;51.332;12.406;2024-03-08T05:25:45;29.23;;;15.45;;
40983;SDS011;26714;51.332;12.406;2024-03-08T05:30:40;27.92;;;14.00;;
40983;SDS011;26714;51.332;12.406;2024-03-08T05:33:06;33.80;;;15.10;;
40983;SDS011;26714;51.332;12.406;2024-03-08T05:38:02;31.27;;;13.88;;
40983;SDS011;26714;51.332;12.406;2024-03-08T05:40:27;33.78;;;16.33;;
40983;SDS011;26714;51.332;12.406;2024-03-08T05:42:57;34.63;;;15.55;;
40983;SDS011;26714;51.332;12.406;2024-03-08T05:45:23;34.08;;;15.02;;
40983;SDS011;26714;51.332;12.406;2024-03-08T05:47:50;31.48;;;14.98;;
40983;SDS011;26714;51.332;12.406;2024-03-08T05:50:17;33.03;;;15.38;;
40983;SDS011;26714;51.332;12.406;2024-03-08T05:52:43;33.17;;;15.00;;
40983;SDS011;26714;51.332;12.406;2024-03-08T05:55:10;32.17;;;15.27;;
40983;SDS011;26714;51.332;12.406;2024-03-08T05:57:40;37.85;;;18.10;;
40983;SDS011;26714;51.332;12.406;2024-03-08T06:00:06;32.83;;;15.55;;
40983;SDS011;26714;51.332;12.406;2024-03-08T06:02:38;35.05;;;15.82;;
40983;SDS011;26714;51.332;12.406;2024-03-08T06:05:09;37.13;;;16.27;;
40983;SDS011;26714;51.332;12.406;2024-03-08T06:07:36;34.72;;;16.30;;
40983;SDS011;26714;51.332;12.406;2024-03-08T06:10:01;40.22;;;16.02;;
40983;SDS011;26714;51.332;12.406;2024-03-08T06:12:27;36.22;;;16.42;;
40983;SDS011;26714;51.332;12.406;2024-03-08T06:14:58;34.65;;;16.15;;
40983;SDS011;26714;51.332;12.406;2024-03-08T06:17:25;33.45;;;14.85;;
40983;SDS011;26714;51.332;12.406;2024-03-08T06:19:52;34.42;;;16.63;;
40983;SDS011;26714;51.332;12.406;2024-03-08T06:22:19;32.50;;;15.60;;
40983;SDS011;26714;51.332;12.406;2024-03-08T06:24:46;33.63;;;16.60;;
40983;SDS011;26714;51.332;12.406;2024-03-08T06:27:14;33.92;;;16.08;;
40983;SDS011;26714;51.332;12.406;2024-03-08T06:29:40;44.47;;;17.08;;
40983;SDS011;26714;51.332;12.406;2024-03-08T06:32:06;37.45;;;16.63;;
40983;SDS011;26714;51.332;12.406;2024-03-08T06:34:35;35.95;;;17.27;;
40983;SDS011;26714;51.332;12.406;2024-03-08T06:37:00;35.83;;;15.75;;
40983;SDS011;26714;51.332;12.406;2024-03-08T06:39:27;37.30;;;17.48;;
40983;SDS011;26714;51.332;12.406;2024-03-08T06:41:54;34.05;;;17.17;;
40983;SDS011;26714;51.332;12.406;2024-03-08T06:44:19;35.63;;;17.15;;
40983;SDS011;26714;51.332;12.406;2024-03-08T06:46:47;34.85;;;16.13;;
40983;SDS011;26714;51.332;12.406;2024-03-08T06:49:13;35.67;;;16.02;;
40983;SDS011;26714;51.332;12.406;2024-03-08T06:51:39;35.75;;;17.20;;
40983;SDS011;26714;51.332;12.406;2024-03-08T06:54:06;35.90;;;17.02;;
40983;SDS011;26714;51.332;12.406;2024-03-08T06:56:37;32.78;;;17.00;;
40983;SDS011;26714;51.332;12.406;2024-03-08T06:59:03;35.78;;;16.88;;
40983;SDS011;26714;51.332;12.406;2024-03-08T07:01:30;37.75;;;17.55;;
40983;SDS011;26714;51.332;12.406;2024-03-08T07:04:00;33.03;;;15.68;;
40983;SDS011;26714;51.332;12.406;2024-03-08T07:06:27;33.33;;;17.08;;
40983;SDS011;26714;51.332;12.406;2024-03-08T07:08:54;35.80;;;17.35;;
40983;SDS011;26714;51.332;12.406;2024-03-08T07:11:19;33.00;;;17.30;;
40983;SDS011;26714;51.332;12.406;2024-03-08T07:13:45;43.42;;;18.02;;
40983;SDS011;26714;51.332;12.406;2024-03-08T07:16:15;35.97;;;17.38;;
40983;SDS011;26714;51.332;12.406;2024-03-08T07:18:42;36.50;;;17.23;;
40983;SDS011;26714;51.332;12.406;2024-03-08T07:21:09;33.53;;;17.52;;
40983;SDS011;26714;51.332;12.406;2024-03-08T07:23:35;40.40;;;20.17;;
40983;SDS011;26714;51.332;12.406;2024-03-08T07:26:20;36.03;;;16.55;;
40983;SDS011;26714;51.332;12.406;2024-03-08T07:28:51;38.80;;;17.38;;
40983;SDS011;26714;51.332;12.406;2024-03-08T07:31:21;40.33;;;17.80;;
40983;SDS011;26714;51.332;12.406;2024-03-08T07:33:57;39.15;;;17.55;;
40983;SDS011;26714;51.332;12.406;2024-03-08T07:36:24;37.78;;;17.30;;
40983;SDS011;26714;51.332;12.406;2024-03-08T07:38:52;38.03;;;18.35;;
40983;SDS011;26714;51.332;12.406;2024-03-08T07:41:18;38.85;;;17.40;;
40983;SDS011;26714;51.332;12.406;2024-03-08T07:43:45;36.60;;;17.40;;
40983;SDS011;26714;51.332;12.406;2024-03-08T07:46:11;36.92;;;17.58;;
40983;SDS011;26714;51.332;12.406;2024-03-08T07:48:38;37.53;;;17.45;;
40983;SDS011;26714;51.332;12.406;2024-03-08T07:51:05;37.17;;;17.35;;
40983;SDS011;26714;51.332;12.406;2024-03-08T07:53:31;39.00;;;18.13;;
40983;SDS011;26714;51.332;12.406;2024-03-08T07:55:57;34.85;;;17.13;;
40983;SDS011;26714;51.332;12.406;2024-03-08T07:58:23;33.30;;;16.17;;
40983;SDS011;26714;51.332;12.406;2024-03-08T08:00:50;35.17;;;18.20;;
40983;SDS011;26714;51.332;12.406;2024-03-08T08:03:16;36.92;;;17.48;;
40983;SDS011;26714;51.332;12.406;2024-03-08T08:05:46;34.53;;;17.88;;
40983;SDS011;26714;51.332;12.406;2024-03-08T08:08:14;42.65;;;18.05;;
40983;SDS011;26714;51.332;12.406;2024-03-08T08:10:40;35.45;;;16.88;;
40983;SDS011;26714;51.332;12.406;2024-03-08T08:13:08;32.85;;;17.05;;
40983;SDS011;26714;51.332;12.406;2024-03-08T08:15:35;37.35;;;18.75;;
40983;SDS011;26714;51.332;12.406;2024-03-08T08:18:01;38.33;;;19.58;;
40983;SDS011;26714;51.332;12.406;2024-03-08T08:20:28;40.15;;;19.02;;
40983;SDS011;26714;51.332;12.406;2024-03-08T08:22:54;33.38;;;16.48;;
40983;SDS011;26714;51.332;12.406;2024-03-08T08:25:20;45.22;;;18.65;;
40983;SDS011;26714;51.332;12.406;2024-03-08T08:27:48;35.60;;;17.58;;
40983;SDS011;26714;51.332;12.406;2024-03-08T08:30:15;38.60;;;18.90;;
40983;SDS011;26714;51.332;12.406;2024-03-08T08:32:41;37.15;;;17.67;;
40983;SDS011;26714;51.332;12.406;2024-03-08T08:35:11;36.28;;;19.05;;
40983;SDS011;26714;51.332;12.406;2024-03-08T08:37:40;40.25;;;18.40;;
40983;SDS011;26714;51.332;12.406;2024-03-08T08:40:08;41.95;;;19.33;;
40983;SDS011;26714;51.332;12.406;2024-03-08T08:42:38;37.47;;;17.48;;
40983;SDS011;26714;51.332;12.406;2024-03-08T08:45:06;34.10;;;16.67;;
40983;SDS011;26714;51.332;12.406;2024-03-08T08:47:37;37.90;;;17.85;;
40983;SDS011;26714;51.332;12.406;2024-03-08T08:50:03;34.53;;;17.02;;
40983;SDS011;26714;51.332;12.406;2024-03-08T08:52:30;40.45;;;18.05;;
40983;SDS011;26714;51.332;12.406;2024-03-08T08:54:58;36.08;;;18.80;;
40983;SDS011;26714;51.332;12.406;2024-03-08T08:57:24;39.53;;;17.70;;
40983;SDS011;26714;51.332;12.406;2024-03-08T08:59:50;39.33;;;18.50;;
40983;SDS011;26714;51.332;12.406;2024-03-08T09:02:18;40.35;;;18.23;;
40983;SDS011;26714;51.332;12.406;2024-03-08T09:04:46;36.33;;;16.98;;
40983;SDS011;26714;51.332;12.406;2024-03-08T09:07:13;35.88;;;16.92;;
40983;SDS011;26714;51.332;12.406;2024-03-08T09:09:39;38.55;;;17.95;;
40983;SDS011;26714;51.332;12.406;2024-03-08T09:12:04;32.70;;;17.70;;
40983;SDS011;26714;51.332;12.406;2024-03-08T09:14:36;37.10;;;18.25;;
40983;SDS011;26714;51.332;12.406;2024-03-08T09:17:06;37.28;;;17.67;;
40983;SDS011;26714;51.332;12.406;2024-03-08T09:19:34;36.05;;;17.08;;
40983;SDS011;26714;51.332;12.406;2024-03-08T09:22:00;42.92;;;18.73;;
40983;SDS011;26714;51.332;12.406;2024-03-08T09:24:25;37.13;;;19.08;;
40983;SDS011;26714;51.332;12.406;2024-03-08T09:26:51;37.75;;;17.83;;
40983;SDS011;26714;51.332;12.406;2024-03-08T09:29:17;35.47;;;18.38;;
40983;SDS011;26714;51.332;12.406;2024-03-08T09:31:46;40.97;;;16.67;;
40983;SDS011;26714;51.332;12.406;2024-03-08T09:34:11;37.28;;;17.08;;
40983;SDS011;26714;51.332;12.406;2024-03-08T09:36:37;39.97;;;17.30;;
40983;SDS011;26714;51.332;12.406;2024-03-08T09:39:02;40.40;;;17.63;;
40983;SDS011;26714;51.332;12.406;2024-03-08T09:41:28;32.42;;;17.27;;
40983;SDS011;26714;51.332;12.406;2024-03-08T09:43:56;36.63;;;17.63;;
40983;SDS011;26714;51.332;12.406;2024-03-08T09:46:24;37.08;;;17.67;;
40983;SDS011;26714;51.332;12.406;2024-03-08T09:48:51;38.10;;;17.08;;
40983;SDS011;26714;51.332;12.406;2024-03-08T09:51:16;36.67;;;17.20;;
40983;SDS011;26714;51.332;12.406;2024-03-08T09:53:42;38.22;;;17.08;;
40983;SDS011;26714;51.332;12.406;2024-03-08T09:56:08;36.05;;;17.33;;
40983;SDS011;26714;51.332;12.406;2024-03-08T09:58:34;37.47;;;17.55;;
40983;SDS011;26714;51.332;12.406;2024-03-08T10:00:59;31.83;;;15.20;;
40983;SDS011;26714;51.332;12.406;2024-03-08T10:03:31;34.33;;;16.20;;
40983;SDS011;26714;51.332;12.406;2024-03-08T10:06:02;33.85;;;16.58;;
40983;SDS011;26714;51.332;12.406;2024-03-08T10:08:27;33.38;;;16.17;;
40983;SDS011;26714;51.332;12.406;2024-03-08T10:10:55;36.90;;;16.95;;
40983;SDS011;26714;51.332;12.406;2024-03-08T10:13:20;32.33;;;17.10;;
40983;SDS011;26714;51.332;12.406;2024-03-08T10:15:46;36.90;;;17.08;;
40983;SDS011;26714;51.332;12.406;2024-03-08T10:18:14;35.30;;;16.63;;
40983;SDS011;26714;51.332;12.406;2024-03-08T10:20:41;31.58;;;16.83;;
40983;SDS011;26714;51.332;12.406;2024-03-08T10:23:09;30.40;;;16.33;;
40983;SDS011;26714;51.332;12.406;2024-03-08T10:25:39;29.33;;;15.50;;
40983;SDS011;26714;51.332;12.406;2024-03-08T10:28:04;32.88;;;16.23;;
40983;SDS011;26714;51.332;12.406;2024-03-08T10:30:30;31.88;;;16.52;;
40983;SDS011;26714;51.332;12.406;2024-03-08T10:32:56;33.55;;;17.33;;
40983;SDS011;26714;51.332;12.406;2024-03-08T10:35:22;28.75;;;14.98;;
40983;SDS011;26714;51.332;12.406;2024-03-08T10:37:52;28.13;;;14.40;;
40983;SDS011;26714;51.332;12.406;2024-03-08T10:40:31;35.20;;;15.20;;
40983;SDS011;26714;51.332;12.406;2024-03-08T10:42:59;28.75;;;14.82;;
40983;SDS011;26714;51.332;12.406;2024-03-08T10:47:53;30.77;;;15.52;;
40983;SDS011;26714;51.332;12.406;2024-03-08T10:50:20;29.08;;;15.48;;
40983;SDS011;26714;51.332;12.406;2024-03-08T10:52:50;31.98;;;14.10;;
40983;SDS011;26714;51.332;12.406;2024-03-08T10:55:19;28.50;;;15.50;;
40983;SDS011;26714;51.332;12.406;2024-03-08T10:57:48;29.05;;;15.27;;
40983;SDS011;26714;51.332;12.406;2024-03-08T11:00:13;29.88;;;15.38;;
40983;SDS011;26714;51.332;12.406;2024-03-08T11:02:44;26.92;;;14.45;;
40983;SDS011;26714;51.332;12.406;2024-03-08T11:05:10;26.40;;;14.98;;
40983;SDS011;26714;51.332;12.406;2024-03-08T11:07:40;32.50;;;14.88;;
40983;SDS011;26714;51.332;12.406;2024-03-08T11:10:06;28.58;;;14.07;;
40983;SDS011;26714;51.332;12.406;2024-03-08T11:12:38;27.90;;;15.40;;
40983;SDS011;26714;51.332;12.406;2024-03-08T11:15:13;29.63;;;15.55;;
40983;SDS011;26714;51.332;12.406;2024-03-08T11:22:56;37.28;;;16.67;;
40983;SDS011;26714;51.332;12.406;2024-03-08T11:28:06;25.05;;;14.13;;
40983;SDS011;26714;51.332;12.406;2024-03-08T11:30:32;25.77;;;13.82;;
40983;SDS011;26714;51.332;12.406;2024-03-08T11:32:57;26.52;;;14.85;;
40983;SDS011;26714;51.332;12.406;2024-03-08T11:35:26;25.25;;;13.60;;
40983;SDS011;26714;51.332;12.406;2024-03-08T11:37:52;26.48;;;14.40;;
40983;SDS011;26714;51.332;12.406;2024-03-08T11:40:18;28.13;;;14.57;;
40983;SDS011;26714;51.332;12.406;2024-03-08T11:42:45;27.35;;;14.75;;
40983;SDS011;26714;51.332;12.406;2024-03-08T11:45:12;26.33;;;13.83;;
40983;SDS011;26714;51.332;12.406;2024-03-08T11:47:41;20.92;;;13.05;;
40983;SDS011;26714;51.332;12.406;2024-03-08T11:50:07;27.95;;;14.63;;
40983;SDS011;26714;51.332;12.406;2024-03-08T11:52:36;23.50;;;14.00;;
40983;SDS011;26714;51.332;12.406;2024-03-08T11:55:02;25.90;;;14.27;;
40983;SDS011;26714;51.332;12.406;2024-03-08T11:57:28;26.27;;;13.35;;
40983;SDS011;26714;51.332;12.406;2024-03-08T11:59:54;28.23;;;14.00;;
40983;SDS011;26714;51.332;12.406;2024-03-08T12:02:24;24.02;;;13.82;;
40983;SDS011;26714;51.332;12.406;2024-03-08T12:04:56;21.73;;;13.55;;
40983;SDS011;26714;51.332;12.406;2024-03-08T12:07:22;23.95;;;14.27;;
40983;SDS011;26714;51.332;12.406;2024-03-08T12:12:38;25.83;;;14.63;;
40983;SDS011;26714;51.332;12.406;2024-03-08T12:15:04;24.83;;;14.60;;
40983;SDS011;26714;51.332;12.406;2024-03-08T12:17:30;25.35;;;14.98;;
40983;SDS011;26714;51.332;12.406;2024-03-08T12:19:55;24.48;;;13.90;;
40983;SDS011;26714;51.332;12.406;2024-03-08T12:22:24;25.30;;;13.65;;
40983;SDS011;26714;51.332;12.406;2024-03-08T12:25:03;29.40;;;15.00;;
40983;SDS011;26714;51.332;12.406;2024-03-08T12:27:30;23.60;;;14.27;;
40983;SDS011;26714;51.332;12.406;2024-03-08T12:29:57;26.08;;;14.38;;
40983;SDS011;26714;51.332;12.406;2024-03-08T12:32:22;25.38;;;14.57;;
40983;SDS011;26714;51.332;12.406;2024-03-08T12:34:52;23.17;;;14.15;;
40983;SDS011;26714;51.332;12.406;2024-03-08T12:37:18;26.35;;;14.10;;
40983;SDS011;26714;51.332;12.406;2024-03-08T12:39:44;25.73;;;14.80;;
40983;SDS011;26714;51.332;12.406;2024-03-08T12:42:09;28.38;;;15.18;;
40983;SDS011;26714;51.332;12.406;2024-03-08T12:44:35;27.02;;;15.32;;
40983;SDS011;26714;51.332;12.406;2024-03-08T12:47:00;27.65;;;16.40;;
40983;SDS011;26714;51.332;12.406;2024-03-08T12:49:26;26.42;;;14.43;;
40983;SDS011;26714;51.332;12.406;2024-03-08T12:51:52;23.70;;;13.98;;
40983;SDS011;26714;51.332;12.406;2024-03-08T12:54:18;29.67;;;14.63;;
40983;SDS011;26714;51.332;12.406;2024-03-08T12:56:43;28.35;;;14.93;;
40983;SDS011;26714;51.332;12.406;2024-03-08T12:59:09;24.75;;;14.38;;
40983;SDS011;26714;51.332;12.406;2024-03-08T13:01:35;26.83;;;15.38;;
40983;SDS011;26714;51.332;12.406;2024-03-08T13:04:04;27.48;;;14.95;;
40983;SDS011;26714;51.332;12.406;2024-03-08T13:06:31;24.65;;;14.38;;
40983;SDS011;26714;51.332;12.406;2024-03-08T13:08:57;23.58;;;15.32;;
40983;SDS011;26714;51.332;12.406;2024-03-08T13:11:23;30.58;;;17.88;;
40983;SDS011;26714;51.332;12.406;2024-03-08T13:13:49;26.17;;;16.65;;
40983;SDS011;26714;51.332;12.406;2024-03-08T13:16:16;25.35;;;15.25;;
40983;SDS011;26714;51.332;12.406;2024-03-08T13:18:44;27.10;;;15.48;;
40983;SDS011;26714;51.332;12.406;2024-03-08T13:21:10;26.52;;;15.90;;
40983;SDS011;26714;51.332;12.406;2024-03-08T13:23:41;28.25;;;17.15;;
40983;SDS011;26714;51.332;12.406;2024-03-08T13:26:10;29.50;;;16.63;;
40983;SDS011;26714;51.332;12.406;2024-03-08T13:28:43;26.88;;;16.48;;
40983;SDS011;26714;51.332;12.406;2024-03-08T13:31:09;27.05;;;16.20;;
40983;SDS011;26714;51.332;12.406;2024-03-08T13:33:38;28.30;;;16.23;;
40983;SDS011;26714;51.332;12.406;2024-03-08T13:36:10;25.50;;;15.85;;
40983;SDS011;26714;51.332;12.406;2024-03-08T13:38:55;30.40;;;17.15;;
40983;SDS011;26714;51.332;12.406;2024-03-08T13:41:27;27.75;;;16.63;;
40983;SDS011;26714;51.332;12.406;2024-03-08T13:43:54;28.33;;;16.60;;
40983;SDS011;26714;51.332;12.406;2024-03-08T13:46:21;28.13;;;17.77;;
40983;SDS011;26714;51.332;12.406;2024-03-08T13:48:46;31.63;;;16.67;;
40983;SDS011;26714;51.332;12.406;2024-03-08T13:51:16;28.83;;;16.02;;
40983;SDS011;26714;51.332;12.406;2024-03-08T13:53:42;25.08;;;16.67;;
40983;SDS011;26714;51.332;12.406;2024-03-08T13:56:08;27.00;;;16.08;;
40983;SDS011;26714;51.332;12.406;2024-03-08T13:58:35;29.17;;;15.90;;
40983;SDS011;26714;51.332;12.406;2024-03-08T14:01:01;26.10;;;15.75;;
40983;SDS011;26714;51.332;12.406;2024-03-08T14:03:28;25.52;;;16.25;;
40983;SDS011;26714;51.332;12.406;2024-03-08T14:05:54;24.98;;;15.60;;
40983;SDS011;26714;51.332;12.406;2024-03-08T14:08:20;26.17;;;16.10;;
40983;SDS011;26714;51.332;12.406;2024-03-08T14:10:47;29.65;;;16.90;;
40983;SDS011;26714;51.332;12.406;2024-03-08T14:13:14;24.05;;;15.27;;
40983;SDS011;26714;51.332;12.406;2024-03-08T14:15:41;26.38;;;16.90;;
40983;SDS011;26714;51.332;12.406;2024-03-08T14:18:07;24.70;;;16.42;;
40983;SDS011;26714;51.332;12.406;2024-03-08T14:20:34;26.63;;;16.75;;
40983;SDS011;26714;51.332;12.406;2024-03-08T14:22:59;29.45;;;17.08;;
40983;SDS011;26714;51.332;12.406;2024-03-08T14:25:25;27.50;;;17.10;;
40983;SDS011;26714;51.332;12.406;2024-03-08T14:27:51;28.00;;;16.83;;
40983;SDS011;26714;51.332;12.406;2024-03-08T14:30:23;28.90;;;18.00;;
40983;SDS011;26714;51.332;12.406;2024-03-08T14:33:03;25.23;;;15.27;;
40983;SDS011;26714;51.332;12.406;2024-03-08T14:35:31;30.65;;;16.92;;
40983;SDS011;26714;51.332;12.406;2024-03-08T14:37:57;26.30;;;17.02;;
40983;SDS011;26714;51.332;12.406;2024-03-08T14:40:23;23.80;;;15.90;;
40983;SDS011;26714;51.332;12.406;2024-03-08T14:42:49;27.02;;;17.23;;
40983;SDS011;26714;51.332;12.406;2024-03-08T14:45:15;24.67;;;15.50;;
40983;SDS011;26714;51.332;12.406;2024-03-08T14:47:41;26.73;;;17.02;;